createdAt,value
2019-01-18T00:00:50.699Z,5.63
2019-01-18T00:02:54.354Z,3.57
2019-01-18T00:04:58.035Z,5.00
2019-01-18T00:07:01.691Z,7.73
2019-01-18T00:09:07.152Z,5.90
2019-01-18T00:11:10.844Z,4.90
2019-01-18T00:13:14.502Z,4.63
2019-01-18T00:15:18.322Z,6.00
2019-01-18T00:17:21.986Z,4.70
2019-01-18T00:19:25.741Z,4.13
2019-01-18T00:21:29.428Z,4.57
2019-01-18T00:23:33.107Z,4.23
2019-01-18T00:25:36.766Z,5.33
2019-01-18T00:27:40.474Z,4.83
2019-01-18T00:29:44.168Z,6.47
2019-01-18T00:31:47.813Z,4.80
2019-01-18T00:33:51.467Z,7.60
2019-01-18T00:35:55.345Z,6.70
2019-01-18T00:37:59.083Z,4.53
2019-01-18T00:40:02.740Z,4.10
2019-01-18T00:42:06.500Z,6.20
2019-01-18T00:44:10.172Z,6.53
2019-01-18T00:46:13.858Z,6.47
2019-01-18T00:48:17.514Z,5.57
2019-01-18T00:50:21.571Z,6.87
2019-01-18T00:52:25.919Z,7.40
2019-01-18T00:54:29.583Z,5.40
2019-01-18T00:56:33.297Z,3.83
2019-01-18T00:58:36.964Z,6.00
2019-01-18T01:00:40.637Z,4.50
2019-01-18T01:02:44.317Z,6.17
2019-01-18T01:04:47.982Z,4.83
2019-01-18T01:06:51.673Z,4.57
2019-01-18T01:08:55.646Z,5.20
2019-01-18T01:10:59.401Z,6.40
2019-01-18T01:13:03.091Z,3.83
2019-01-18T01:15:10.597Z,4.53
2019-01-18T01:17:14.341Z,3.77
2019-01-18T01:19:18.006Z,5.60
2019-01-18T01:21:21.655Z,4.90
2019-01-18T01:23:25.368Z,6.90
2019-01-18T01:25:29.035Z,5.00
2019-01-18T01:27:32.725Z,8.03
2019-01-18T01:29:42.856Z,4.97
2019-01-18T01:31:41.786Z,6.73
2019-01-18T01:33:45.565Z,5.50
2019-01-18T01:35:49.238Z,4.37
2019-01-18T01:37:52.921Z,4.20
2019-01-18T01:39:56.571Z,7.43
2019-01-18T01:42:00.234Z,5.93
2019-01-18T01:44:03.914Z,5.13
2019-01-18T01:46:07.579Z,4.73
2019-01-18T01:48:11.257Z,4.50
2019-01-18T01:50:20.175Z,6.50
2019-01-18T01:52:23.855Z,4.13
2019-01-18T01:54:27.531Z,5.33
2019-01-18T01:56:31.190Z,4.60
2019-01-18T01:58:34.870Z,5.07
2019-01-18T02:00:38.539Z,6.33
2019-01-18T02:02:42.193Z,3.80
2019-01-18T02:04:45.892Z,4.77
2019-01-18T02:06:49.557Z,6.83
2019-01-18T02:08:53.216Z,6.90
2019-01-18T02:10:56.903Z,5.17
2019-01-18T02:13:00.566Z,6.27
2019-01-18T02:15:06.626Z,5.80
2019-01-18T02:17:10.283Z,6.03
2019-01-18T02:19:13.974Z,4.40
2019-01-18T02:21:17.662Z,7.30
2019-01-18T02:23:21.474Z,5.87
2019-01-18T02:25:25.165Z,6.87
2019-01-18T02:27:28.826Z,5.53
2019-01-18T02:29:32.568Z,7.03
2019-01-18T02:31:36.281Z,8.70
2019-01-18T02:33:39.904Z,4.63
2019-01-18T02:35:43.584Z,5.83
2019-01-18T02:37:47.237Z,8.63
2019-01-18T02:39:50.972Z,5.60
2019-01-18T02:41:54.874Z,6.00
2019-01-18T02:43:58.527Z,5.97
2019-01-18T02:46:02.222Z,7.17
2019-01-18T02:48:05.876Z,8.60
2019-01-18T02:50:11.440Z,7.67
2019-01-18T02:52:15.122Z,6.40
2019-01-18T02:54:18.787Z,4.90
2019-01-18T02:56:22.538Z,9.57
2019-01-18T02:58:26.194Z,4.93
2019-01-18T03:00:29.851Z,9.00
2019-01-18T03:02:33.534Z,6.70
2019-01-18T03:04:37.227Z,7.20
2019-01-18T03:06:40.914Z,6.23
2019-01-18T03:08:44.580Z,8.53
2019-01-18T03:10:48.242Z,18.33
2019-01-18T03:12:51.932Z,5.93
2019-01-18T03:14:55.686Z,8.27
2019-01-18T03:16:59.460Z,9.17
2019-01-18T03:19:03.114Z,8.37
2019-01-18T03:21:06.830Z,5.87
2019-01-18T03:23:10.578Z,5.87
2019-01-18T03:25:17.115Z,7.83
2019-01-18T03:27:20.807Z,5.40
2019-01-18T03:29:24.509Z,4.80
2019-01-18T03:31:31.056Z,5.83
2019-01-18T03:33:34.744Z,5.70
2019-01-18T03:35:38.403Z,6.23
2019-01-18T03:37:42.143Z,8.03
2019-01-18T03:39:45.839Z,7.03
2019-01-18T03:41:49.493Z,5.27
2019-01-18T03:43:56.506Z,7.87
2019-01-18T03:46:00.164Z,8.80
2019-01-18T03:48:03.879Z,6.10
2019-01-18T03:50:10.815Z,8.83
2019-01-18T03:52:14.476Z,8.23
2019-01-18T03:54:18.158Z,5.90
2019-01-18T03:56:21.816Z,6.83
2019-01-18T03:58:25.638Z,10.57
2019-01-18T04:00:29.723Z,8.60
2019-01-18T04:02:33.391Z,6.40
2019-01-18T04:04:37.202Z,6.40
2019-01-18T04:06:40.878Z,6.37
2019-01-18T04:08:44.535Z,9.23
2019-01-18T04:10:48.218Z,8.73
2019-01-18T04:12:51.973Z,8.53
2019-01-18T04:14:55.652Z,5.73
2019-01-18T04:16:59.332Z,6.13
2019-01-18T04:19:02.995Z,8.63
2019-01-18T04:21:06.677Z,9.47
2019-01-18T04:23:10.326Z,6.93
2019-01-18T04:25:15.884Z,6.37
2019-01-18T04:27:19.546Z,8.10
2019-01-18T04:29:23.210Z,7.30
2019-01-18T04:31:26.874Z,8.43
2019-01-18T04:33:30.557Z,8.17
2019-01-18T04:35:34.237Z,7.30
2019-01-18T04:37:37.892Z,8.90
2019-01-18T04:39:41.550Z,8.60
2019-01-18T04:41:45.243Z,7.80
2019-01-18T04:43:48.896Z,4.77
2019-01-18T04:45:52.587Z,7.20
2019-01-18T04:47:56.259Z,7.90
2019-01-18T04:49:59.930Z,5.67
2019-01-18T04:52:03.614Z,8.90
2019-01-18T04:54:07.395Z,9.37
2019-01-18T04:56:11.233Z,5.33
2019-01-18T04:58:14.893Z,7.20
2019-01-18T05:00:21.058Z,6.70
2019-01-18T05:02:24.729Z,8.93
2019-01-18T05:04:28.387Z,9.93
2019-01-18T05:06:32.158Z,5.10
2019-01-18T05:08:35.813Z,7.87
2019-01-18T05:10:39.464Z,9.00
2019-01-18T05:12:43.160Z,8.97
2019-01-18T05:14:46.810Z,10.20
2019-01-18T05:16:50.497Z,8.63
2019-01-18T05:18:54.151Z,7.83
2019-01-18T05:20:57.835Z,5.77
2019-01-18T05:23:01.524Z,6.30
2019-01-18T05:25:07.291Z,11.17
2019-01-18T05:27:10.978Z,7.67
2019-01-18T05:29:14.641Z,8.13
2019-01-18T05:31:18.330Z,10.47
2019-01-18T05:33:22.019Z,9.77
2019-01-18T05:35:25.680Z,7.00
2019-01-18T05:37:29.387Z,11.30
2019-01-18T05:39:33.108Z,11.50
2019-01-18T05:41:36.821Z,4.90
2019-01-18T05:43:40.602Z,7.77
2019-01-18T05:45:44.254Z,6.47
2019-01-18T05:47:47.947Z,9.63
2019-01-18T05:49:51.616Z,11.47
2019-01-18T05:51:55.307Z,4.70
2019-01-18T05:53:58.993Z,6.57
2019-01-18T05:56:02.650Z,9.00
2019-01-18T05:58:06.336Z,9.60
2019-01-18T06:00:31.703Z,12.73
2019-01-18T06:02:35.360Z,9.40
2019-01-18T06:04:39.064Z,8.70
2019-01-18T06:06:42.715Z,8.10
2019-01-18T06:08:46.447Z,8.97
2019-01-18T06:10:50.113Z,11.07
2019-01-18T06:12:53.766Z,5.30
2019-01-18T06:14:57.451Z,8.30
2019-01-18T06:17:01.116Z,9.33
2019-01-18T06:19:04.799Z,7.80
2019-01-18T06:21:08.464Z,7.77
2019-01-18T06:23:12.122Z,8.27
2019-01-18T06:25:16.413Z,7.70
2019-01-18T06:27:20.078Z,9.77
2019-01-18T06:29:23.750Z,7.93
2019-01-18T06:31:27.411Z,10.90
2019-01-18T06:33:31.072Z,8.10
2019-01-18T06:35:34.915Z,9.80
2019-01-18T06:37:38.637Z,7.37
2019-01-18T06:39:42.405Z,6.00
2019-01-18T06:41:46.460Z,8.13
2019-01-18T06:43:50.179Z,10.57
2019-01-18T06:45:53.890Z,8.43
2019-01-18T06:47:57.648Z,7.60
2019-01-18T06:50:01.331Z,5.20
2019-01-18T06:52:05.086Z,9.37
2019-01-18T06:54:08.739Z,10.80
2019-01-18T06:56:12.556Z,8.77
2019-01-18T06:58:16.336Z,11.33
2019-01-18T07:00:22.903Z,10.17
2019-01-18T07:02:26.579Z,14.67
2019-01-18T07:04:30.233Z,6.60
2019-01-18T07:06:33.915Z,9.87
2019-01-18T07:08:37.575Z,11.07
2019-01-18T07:10:41.331Z,6.23
2019-01-18T07:12:45.029Z,8.97
2019-01-18T07:14:48.676Z,13.90
2019-01-18T07:16:52.372Z,9.40
2019-01-18T07:18:56.033Z,7.70
2019-01-18T07:20:59.822Z,9.53
2019-01-18T07:23:03.518Z,8.43
2019-01-18T07:25:10.114Z,9.97
2019-01-18T07:27:13.808Z,11.73
2019-01-18T07:29:17.450Z,9.67
2019-01-18T07:31:21.146Z,14.33
2019-01-18T07:33:24.803Z,10.00
2019-01-18T07:35:28.495Z,7.93
2019-01-18T07:37:32.182Z,8.90
2019-01-18T07:39:35.844Z,6.47
2019-01-18T07:41:39.530Z,7.57
2019-01-18T07:43:43.201Z,8.83
2019-01-18T07:45:46.926Z,9.33
2019-01-18T07:47:50.598Z,9.50
2019-01-18T07:49:54.264Z,24.17
2019-01-18T07:51:57.941Z,18.37
2019-01-18T07:54:01.613Z,14.73
2019-01-18T07:56:05.316Z,11.33
2019-01-18T07:58:09.006Z,8.37
2019-01-18T08:00:29.746Z,8.17
2019-01-18T08:02:33.411Z,11.77
2019-01-18T08:04:37.087Z,7.87
2019-01-18T08:06:40.746Z,7.93
2019-01-18T08:08:44.455Z,9.03
2019-01-18T08:10:48.114Z,9.00
2019-01-18T08:12:51.847Z,9.27
2019-01-18T08:14:55.502Z,8.73
2019-01-18T08:16:59.158Z,10.23
2019-01-18T08:19:02.839Z,9.30
2019-01-18T08:21:06.502Z,11.40
2019-01-18T08:23:10.200Z,11.10
2019-01-18T08:25:15.284Z,12.93
2019-01-18T08:27:18.951Z,13.77
2019-01-18T08:29:22.692Z,15.03
2019-01-18T08:31:29.029Z,16.57
2019-01-18T08:33:31.776Z,11.13
2019-01-18T08:35:35.438Z,12.00
2019-01-18T08:37:39.134Z,12.00
2019-01-18T08:39:42.838Z,23.20
2019-01-18T08:41:46.524Z,43.93
2019-01-18T08:43:50.208Z,21.50
2019-01-18T08:45:53.869Z,17.73
2019-01-18T08:47:57.637Z,14.33
2019-01-18T08:50:01.395Z,14.10
2019-01-18T08:52:05.149Z,10.23
2019-01-18T08:54:08.834Z,15.80
2019-01-18T08:56:12.526Z,8.87
2019-01-18T08:58:16.180Z,8.33
2019-01-18T09:00:25.769Z,8.87
2019-01-18T09:02:29.421Z,10.30
2019-01-18T09:04:33.117Z,10.47
2019-01-18T09:06:36.778Z,9.73
2019-01-18T09:08:40.436Z,7.17
2019-01-18T09:10:44.104Z,11.83
2019-01-18T09:12:47.771Z,15.37
2019-01-18T09:14:51.475Z,17.47
2019-01-18T09:16:55.171Z,17.40
2019-01-18T09:18:58.830Z,9.00
2019-01-18T09:21:02.534Z,16.87
2019-01-18T09:23:06.217Z,7.03
2019-01-18T09:25:09.878Z,10.30
2019-01-18T09:27:13.558Z,12.70
2019-01-18T09:29:17.206Z,9.43
2019-01-18T09:31:20.891Z,13.90
2019-01-18T09:33:24.574Z,9.00
2019-01-18T09:35:28.360Z,10.17
2019-01-18T09:37:32.017Z,11.17
2019-01-18T09:39:35.675Z,9.57
2019-01-18T09:41:39.359Z,7.77
2019-01-18T09:43:43.028Z,9.87
2019-01-18T09:45:46.706Z,9.47
2019-01-18T09:47:50.377Z,11.50
2019-01-18T09:49:54.035Z,17.90
2019-01-18T09:51:57.758Z,34.53
2019-01-18T09:54:01.432Z,13.83
2019-01-18T09:56:05.119Z,17.37
2019-01-18T09:58:08.815Z,12.50
2019-01-18T10:00:21.536Z,11.30
2019-01-18T10:02:25.222Z,14.90
2019-01-18T10:04:28.897Z,13.73
2019-01-18T10:06:32.570Z,14.57
2019-01-18T10:08:36.259Z,38.17
2019-01-18T10:10:39.914Z,12.67
2019-01-18T10:12:43.875Z,10.47
2019-01-18T10:14:47.666Z,14.00
2019-01-18T10:16:51.369Z,16.47
2019-01-18T10:18:55.025Z,13.67
2019-01-18T10:20:58.690Z,11.30
2019-01-18T10:23:02.375Z,12.97
2019-01-18T10:25:09.307Z,12.23
2019-01-18T10:27:12.986Z,13.00
2019-01-18T10:29:16.659Z,10.80
2019-01-18T10:31:20.342Z,9.97
2019-01-18T10:33:24.046Z,9.93
2019-01-18T10:35:28.299Z,14.10
2019-01-18T10:37:32.068Z,16.67
2019-01-18T10:39:35.732Z,14.97
2019-01-18T10:41:39.396Z,11.50
2019-01-18T10:43:43.090Z,10.87
2019-01-18T10:45:46.753Z,13.77
2019-01-18T10:47:50.835Z,8.93
2019-01-18T10:49:54.508Z,10.77
2019-01-18T10:51:58.183Z,11.33
2019-01-18T10:54:01.883Z,9.07
2019-01-18T10:56:05.550Z,9.70
2019-01-18T10:58:12.918Z,13.53
2019-01-18T11:00:21.964Z,11.10
2019-01-18T11:02:25.628Z,14.07
2019-01-18T11:04:29.343Z,13.00
2019-01-18T11:06:32.995Z,19.77
2019-01-18T11:08:36.691Z,12.63
2019-01-18T11:10:40.356Z,9.10
2019-01-18T11:12:44.123Z,13.10
2019-01-18T11:14:47.807Z,9.27
2019-01-18T11:16:51.465Z,10.20
2019-01-18T11:18:55.289Z,13.90
2019-01-18T11:20:59.017Z,14.77
2019-01-18T11:23:02.703Z,11.37
2019-01-18T11:25:08.987Z,8.23
2019-01-18T11:27:12.676Z,11.77
2019-01-18T11:29:16.423Z,10.57
2019-01-18T11:31:23.398Z,9.10
2019-01-18T11:33:25.477Z,8.73
2019-01-18T11:35:29.259Z,12.13
2019-01-18T11:37:32.929Z,13.50
2019-01-18T11:39:36.623Z,10.97
2019-01-18T11:41:40.289Z,14.40
2019-01-18T11:43:43.953Z,10.70
2019-01-18T11:45:47.667Z,12.90
2019-01-18T11:47:51.314Z,13.50
2019-01-18T11:49:55.139Z,12.93
2019-01-18T11:51:58.809Z,13.27
2019-01-18T11:54:02.608Z,19.90
2019-01-18T11:56:06.313Z,15.33
2019-01-18T11:58:09.990Z,15.50
2019-01-18T12:00:25.804Z,21.37
2019-01-18T12:02:29.482Z,13.57
2019-01-18T12:04:33.157Z,18.00
2019-01-18T12:06:36.839Z,14.27
2019-01-18T12:08:41.951Z,13.17
2019-01-18T12:10:45.883Z,11.77
2019-01-18T12:12:49.548Z,12.77
2019-01-18T12:14:53.222Z,15.87
2019-01-18T12:16:56.968Z,13.40
2019-01-18T12:19:00.645Z,17.67
2019-01-18T12:21:04.344Z,16.20
2019-01-18T12:23:08.015Z,17.30
2019-01-18T12:25:11.912Z,12.20
2019-01-18T12:27:15.611Z,19.03
2019-01-18T12:29:19.262Z,11.00
2019-01-18T12:31:22.983Z,13.07
2019-01-18T12:33:26.655Z,13.03
2019-01-18T12:35:30.343Z,11.60
2019-01-18T12:37:34.045Z,14.00
2019-01-18T12:39:37.716Z,12.20
2019-01-18T12:41:41.515Z,11.20
2019-01-18T12:43:45.187Z,10.70
2019-01-18T12:45:48.855Z,13.77
2019-01-18T12:47:52.562Z,11.73
2019-01-18T12:49:56.227Z,10.13
2019-01-18T12:51:59.915Z,12.60
2019-01-18T12:54:03.739Z,13.97
2019-01-18T12:56:07.459Z,15.13
2019-01-18T12:58:11.172Z,12.07
2019-01-18T13:00:18.091Z,11.20
2019-01-18T13:02:21.771Z,14.93
2019-01-18T13:04:25.506Z,12.77
2019-01-18T13:06:29.166Z,16.50
2019-01-18T13:08:32.857Z,12.20
2019-01-18T13:10:36.520Z,10.10
2019-01-18T13:12:40.245Z,10.00
2019-01-18T13:14:43.890Z,11.83
2019-01-18T13:16:47.569Z,10.23
2019-01-18T13:18:51.253Z,8.47
2019-01-18T13:20:54.912Z,11.23
2019-01-18T13:22:58.643Z,17.83
2019-01-18T13:25:02.323Z,12.13
2019-01-18T13:27:05.993Z,9.37
2019-01-18T13:29:09.698Z,9.93
2019-01-18T13:31:13.410Z,12.60
2019-01-18T13:33:17.167Z,9.17
2019-01-18T13:35:20.934Z,14.23
2019-01-18T13:37:24.634Z,17.80
2019-01-18T13:39:28.328Z,11.63
2019-01-18T13:41:32.019Z,9.73
2019-01-18T13:43:35.698Z,8.33
2019-01-18T13:45:39.371Z,8.80
2019-01-18T13:47:44.431Z,9.50
2019-01-18T13:49:48.124Z,8.20
2019-01-18T13:51:51.793Z,10.63
2019-01-18T13:53:55.557Z,10.90
2019-01-18T13:55:59.252Z,8.33
2019-01-18T13:58:02.923Z,9.87
2019-01-18T14:00:09.675Z,15.70
2019-01-18T14:02:13.355Z,12.63
2019-01-18T14:04:17.051Z,10.33
2019-01-18T14:06:20.817Z,13.87
2019-01-18T14:08:24.491Z,13.13
2019-01-18T14:10:30.077Z,10.50
2019-01-18T14:12:33.849Z,10.50
2019-01-18T14:14:37.650Z,14.20
2019-01-18T14:16:41.328Z,10.53
2019-01-18T14:18:45.032Z,17.10
2019-01-18T14:20:48.785Z,14.30
2019-01-18T14:22:52.861Z,11.93
2019-01-18T14:24:56.580Z,12.47
2019-01-18T14:27:00.256Z,8.97
2019-01-18T14:29:03.934Z,14.37
2019-01-18T14:31:07.709Z,16.77
2019-01-18T14:33:11.414Z,15.40
2019-01-18T14:35:15.121Z,11.53
2019-01-18T14:37:18.794Z,14.37
2019-01-18T14:39:22.472Z,13.10
2019-01-18T14:41:26.168Z,15.80
2019-01-18T14:43:29.852Z,15.17
2019-01-18T14:45:39.439Z,24.17
2019-01-18T14:47:43.126Z,15.73
2019-01-18T14:49:46.829Z,12.60
2019-01-18T14:51:50.507Z,13.70
2019-01-18T14:53:54.181Z,31.47
2019-01-18T14:55:57.948Z,13.63
2019-01-18T14:58:01.710Z,12.53
2019-01-18T15:00:14.843Z,10.33
2019-01-18T15:02:18.535Z,11.57
2019-01-18T15:04:23.011Z,10.13
2019-01-18T15:06:26.775Z,13.03
2019-01-18T15:08:30.443Z,15.90
2019-01-18T15:10:34.134Z,13.30
2019-01-18T15:12:37.839Z,14.43
2019-01-18T15:14:41.522Z,9.97
2019-01-18T15:16:45.215Z,11.70
2019-01-18T15:18:48.896Z,10.57
2019-01-18T15:20:52.552Z,11.37
2019-01-18T15:22:56.449Z,11.70
2019-01-18T15:25:00.226Z,10.23
2019-01-18T15:27:05.698Z,12.63
2019-01-18T15:29:09.434Z,10.57
2019-01-18T15:31:13.115Z,11.00
2019-01-18T15:33:16.842Z,12.37
2019-01-18T15:35:23.016Z,15.37
2019-01-18T15:37:26.719Z,18.87
2019-01-18T15:39:30.436Z,19.17
2019-01-18T15:41:34.175Z,14.67
2019-01-18T15:43:37.918Z,11.93
2019-01-18T15:45:41.578Z,12.30
2019-01-18T15:47:45.286Z,9.80
2019-01-18T15:49:49.005Z,16.50
2019-01-18T15:51:52.687Z,11.73
2019-01-18T15:53:56.415Z,14.43
2019-01-18T15:56:00.102Z,13.53
2019-01-18T15:58:03.874Z,15.33
2019-01-18T16:00:31.102Z,14.13
2019-01-18T16:02:34.764Z,11.83
2019-01-18T16:04:41.134Z,7.67
2019-01-18T16:06:44.844Z,9.53
2019-01-18T16:08:48.542Z,12.00
2019-01-18T16:10:52.232Z,14.70
2019-01-18T16:12:55.902Z,16.27
2019-01-18T16:14:59.627Z,12.33
2019-01-18T16:17:04.672Z,13.23
2019-01-18T16:19:08.430Z,15.03
2019-01-18T16:21:12.114Z,12.47
2019-01-18T16:23:15.760Z,11.63
2019-01-18T16:25:25.110Z,20.67
2019-01-18T16:27:28.792Z,17.73
2019-01-18T16:29:32.504Z,17.00
2019-01-18T16:31:36.237Z,19.83
2019-01-18T16:33:39.904Z,19.37
2019-01-18T16:35:43.721Z,22.90
2019-01-18T16:37:48.002Z,17.47
2019-01-18T16:39:51.679Z,22.77
2019-01-18T16:41:55.411Z,19.70
2019-01-18T16:43:59.136Z,21.93
2019-01-18T16:46:02.815Z,20.23
2019-01-18T16:48:06.531Z,19.00
2019-01-18T16:50:13.060Z,24.03
2019-01-18T16:52:16.856Z,23.73
2019-01-18T16:54:20.588Z,24.67
2019-01-18T16:56:24.394Z,25.93
2019-01-18T16:58:28.104Z,32.63
2019-01-18T17:00:40.622Z,29.23
2019-01-18T17:02:44.326Z,29.13
2019-01-18T17:04:48.008Z,37.57
2019-01-18T17:06:51.698Z,33.30
2019-01-18T17:08:55.378Z,30.73
2019-01-18T17:10:59.097Z,26.73
2019-01-18T17:13:02.826Z,31.33
2019-01-18T17:15:09.819Z,30.57
2019-01-18T17:17:13.525Z,31.67
2019-01-18T17:19:17.192Z,28.77
2019-01-18T17:21:21.238Z,25.43
2019-01-18T17:23:24.911Z,24.77
2019-01-18T17:25:28.683Z,27.47
2019-01-18T17:27:32.390Z,26.50
2019-01-18T17:29:36.063Z,21.10
2019-01-18T17:31:39.754Z,28.73
2019-01-18T17:33:43.458Z,28.73
2019-01-18T17:35:57.667Z,31.30
2019-01-18T17:38:04.299Z,25.40
2019-01-18T17:40:10.903Z,29.27
2019-01-18T17:42:20.094Z,26.20
2019-01-18T17:44:46.570Z,27.27
2019-01-18T17:47:02.090Z,35.97
2019-01-18T17:49:20.914Z,27.53
2019-01-18T17:51:49.402Z,24.20
2019-01-18T17:54:11.028Z,15.77
2019-01-18T17:56:23.153Z,24.53
2019-01-18T17:58:54.214Z,15.17
2019-01-18T18:01:35.563Z,10.63
2019-01-18T18:03:48.129Z,12.07
2019-01-18T18:06:03.340Z,27.70
2019-01-18T18:08:16.161Z,13.77
2019-01-18T18:10:38.965Z,10.60
2019-01-18T18:13:03.658Z,14.00
2019-01-18T18:15:40.962Z,37.60
2019-01-18T18:17:50.478Z,109.63
2019-01-18T18:20:12.394Z,25.87
2019-01-18T18:22:48.174Z,31.53
2019-01-18T18:25:00.563Z,39.43
2019-01-18T18:27:13.008Z,41.13
2019-01-18T18:29:22.370Z,38.53
2019-01-18T18:31:43.595Z,30.53
2019-01-18T18:34:06.520Z,27.83
2019-01-18T18:36:24.943Z,26.17
2019-01-18T18:38:34.394Z,26.20
2019-01-18T18:40:52.744Z,21.27
2019-01-18T18:43:21.607Z,21.87
2019-01-18T18:45:52.247Z,27.33
2019-01-18T18:48:18.312Z,29.93
2019-01-18T18:50:24.947Z,34.73
2019-01-18T18:52:37.083Z,26.10
2019-01-18T18:55:07.018Z,26.27
2019-01-18T18:57:19.002Z,19.80
2019-01-18T18:59:43.271Z,14.10
2019-01-18T19:01:56.239Z,21.23
2019-01-18T19:04:12.078Z,32.53
2019-01-18T19:06:30.326Z,22.50
2019-01-18T19:08:36.928Z,35.77
2019-01-18T19:10:52.138Z,21.17
2019-01-18T19:13:01.681Z,17.13
2019-01-18T19:15:30.737Z,28.00
2019-01-18T19:17:52.447Z,47.60
2019-01-18T19:20:27.800Z,51.17
2019-01-18T19:22:46.625Z,33.37
2019-01-18T19:25:04.837Z,36.87
2019-01-18T19:27:20.307Z,26.67
2019-01-18T19:29:38.666Z,25.17
2019-01-18T19:31:51.514Z,22.77
2019-01-18T19:34:06.960Z,21.23
2019-01-18T19:36:25.304Z,17.33
2019-01-18T19:38:52.351Z,19.90
2019-01-18T19:41:18.569Z,28.17
2019-01-18T19:43:58.106Z,24.87
2019-01-18T19:46:10.656Z,25.00
2019-01-18T19:48:23.190Z,22.47
2019-01-18T19:50:35.466Z,25.57
2019-01-18T19:52:50.394Z,29.90
2019-01-18T19:55:20.583Z,22.63
2019-01-18T19:57:41.418Z,24.50
2019-01-18T19:59:59.934Z,33.70
2019-01-18T20:02:27.726Z,31.93
2019-01-18T20:04:40.195Z,26.83
2019-01-18T20:07:01.675Z,22.17
2019-01-18T20:09:28.534Z,25.40
2019-01-18T20:11:40.845Z,19.93
2019-01-18T20:13:59.574Z,19.90
2019-01-18T20:16:14.727Z,20.63
2019-01-18T20:18:23.806Z,22.17
2019-01-18T20:20:48.302Z,20.87
2019-01-18T20:23:11.412Z,18.93
2019-01-18T20:25:18.049Z,19.93
2019-01-18T20:27:30.138Z,20.10
2019-01-18T20:29:54.499Z,25.23
2019-01-18T20:32:03.649Z,21.07
2019-01-18T20:34:26.504Z,20.77
2019-01-18T20:36:36.121Z,21.17
2019-01-18T20:39:01.180Z,23.73
2019-01-18T20:41:07.867Z,29.63
2019-01-18T20:43:32.921Z,27.90
2019-01-18T20:45:57.588Z,30.07
2019-01-18T20:48:33.911Z,31.73
2019-01-18T20:50:52.459Z,26.40
2019-01-18T20:53:20.118Z,28.60
2019-01-18T20:55:54.012Z,37.03
2019-01-18T20:58:16.927Z,34.67
2019-01-18T21:00:41.660Z,37.43
2019-01-18T21:03:05.471Z,40.40
2019-01-18T21:05:24.134Z,35.63
2019-01-18T21:07:49.254Z,36.20
2019-01-18T21:10:02.362Z,41.20
2019-01-18T21:12:18.267Z,35.63
2019-01-18T21:14:27.963Z,33.13
2019-01-18T21:16:34.764Z,35.53
2019-01-18T21:19:08.886Z,41.47
2019-01-18T21:21:17.999Z,33.43
2019-01-18T21:23:39.160Z,29.20
2019-01-18T21:25:51.391Z,32.47
2019-01-18T21:28:31.459Z,32.07
2019-01-18T21:30:40.649Z,34.40
2019-01-18T21:32:49.834Z,32.07
2019-01-18T21:34:59.580Z,32.90
2019-01-18T21:37:12.103Z,39.23
2019-01-18T21:39:43.243Z,28.27
2019-01-18T21:41:52.655Z,35.30
2019-01-18T21:44:11.371Z,31.83
2019-01-18T21:46:23.279Z,33.33
2019-01-18T21:49:00.448Z,32.37
2019-01-18T21:51:22.250Z,36.87
2019-01-18T21:53:34.913Z,35.37
2019-01-18T21:55:47.272Z,29.53
2019-01-18T21:58:05.835Z,31.83
2019-01-18T22:00:18.179Z,30.07
2019-01-18T22:02:36.865Z,31.63
2019-01-18T22:04:58.575Z,30.20
2019-01-18T22:07:05.171Z,31.47
2019-01-18T22:09:20.810Z,30.47
2019-01-18T22:11:56.343Z,28.43
2019-01-18T22:14:15.030Z,29.63
2019-01-18T22:16:55.299Z,34.17
2019-01-18T22:19:18.564Z,31.00
2019-01-18T22:21:27.855Z,28.47
2019-01-18T22:23:34.465Z,28.23
2019-01-18T22:26:03.778Z,34.23
2019-01-18T22:28:22.541Z,24.47
2019-01-18T22:30:56.103Z,27.27
2019-01-18T22:33:05.855Z,29.77
2019-01-18T22:35:27.566Z,30.73
2019-01-18T22:37:46.111Z,23.33
2019-01-18T22:39:58.659Z,25.60
2019-01-18T22:42:05.298Z,24.17
2019-01-18T22:44:27.129Z,22.57
2019-01-18T22:46:50.613Z,23.93
2019-01-18T22:49:05.866Z,22.97
2019-01-18T22:51:15.431Z,25.63
2019-01-18T22:53:31.276Z,26.07
2019-01-18T22:55:55.520Z,25.97
2019-01-18T22:58:04.764Z,26.23
2019-01-18T23:00:34.122Z,26.67
2019-01-18T23:02:55.585Z,28.27
2019-01-18T23:05:10.980Z,35.63
2019-01-18T23:07:17.597Z,34.93
2019-01-18T23:09:49.685Z,33.30
2019-01-18T23:11:58.870Z,30.73
2019-01-18T23:14:27.368Z,35.40
2019-01-18T23:16:39.721Z,29.90
2019-01-18T23:18:58.307Z,33.60
2019-01-18T23:21:13.707Z,35.20
2019-01-18T23:23:35.170Z,33.60
2019-01-18T23:26:04.153Z,30.63
2019-01-18T23:28:28.694Z,25.63
2019-01-18T23:30:48.143Z,29.37
2019-01-18T23:33:09.911Z,31.20
2019-01-18T23:35:31.353Z,32.60
2019-01-18T23:38:00.716Z,26.73
2019-01-18T23:40:12.790Z,25.33
2019-01-18T23:42:28.179Z,26.80
2019-01-18T23:44:43.503Z,23.93
2019-01-18T23:47:06.922Z,22.17
2019-01-18T23:49:16.476Z,17.67
2019-01-18T23:51:41.409Z,21.20
2019-01-18T23:53:48.141Z,25.40
2019-01-18T23:56:00.144Z,21.60
2019-01-18T23:58:09.632Z,18.57
